Latest Weather Observations for Wadeye (Port Keats)

IDD60801

Issued at 10:35 pm CST Friday 24 October 2014 (issued every 30 minutes, with the page automatically refreshed every 10 minutes)

About weather observations | Map of weather stations | Latest weather observations for NT | Other Formats
Station Details ID: 014948 Name: PORT KEATS AIRPORT Lat: -14.25 Lon: 129.53 Height: 28.0 m
Data from the previous 72 hours. | See also: Recent months at Wadeye (Port Keats)
Date/Time
CST
Temp
°C
App
Temp
°C
Dew
Point
Rel
Hum
%
Delta-T
°C
Wind Press
QNH
hPa
Press
MSL
hPa
Rain
since 9 am
mm
Dir
 
Spd
km/h
Gust
km/h
Spd
kts
Gust
kts
24/10:30pm 27.9 31.2 21.4 67 4.3 NNW 6 9 3 5 1012.3 1012.1 0.0
24/10:00pm 27.2 30.3 21.0 69 4.1 W 6 7 3 4 1012.1 1011.9 0.0
24/09:30pm 28.0 31.2 21.3 67 4.5 W 6 9 3 5 1012.0 1011.8 0.0
24/09:00pm 28.4 31.1 21.4 66 4.7 NNW 9 13 5 7 1011.6 1011.4 0.0
24/08:30pm 28.6 31.0 21.6 66 4.7 NNW 11 15 6 8 1011.4 1011.2 0.0
24/08:00pm 28.4 31.8 21.7 67 4.5 WNW 6 9 3 5 1011.0 1010.8 0.0
24/07:30pm 28.7 31.9 21.7 66 4.7 WNW 7 11 4 6 1010.4 1010.2 0.0
24/07:00pm 29.3 31.9 20.5 59 5.8 WNW 7 11 4 6 1010.4 1010.2 0.0
24/06:30pm 30.0 31.6 20.0 55 6.6 W 11 20 6 11 1010.1 1009.9 0.0
24/06:00pm 30.7 30.9 19.4 51 7.4 W 17 24 9 13 1009.9 1009.7 0.0
24/05:30pm 31.1 31.5 19.8 51 7.4 W 17 30 9 16 1009.8 1009.6 0.0
24/05:00pm 31.5 31.9 19.8 49 7.7 W 17 28 9 15 1009.6 1009.4 0.0
24/04:30pm 31.3 31.4 19.9 50 7.5 WNW 19 28 10 15 1009.8 1009.6 0.0
24/04:00pm 31.5 32.0 20.8 53 7.2 W 19 28 10 15 1010.1 1009.9 0.0
24/03:30pm 32.2 33.5 21.7 54 7.1 W 17 22 9 12 1010.2 1010.0 0.0
24/03:00pm 31.9 32.2 20.5 51 7.6 NW 19 30 10 16 1010.5 1010.3 0.0
24/02:30pm 32.1 32.4 20.4 50 7.8 WNW 19 26 10 14 1010.6 1010.4 0.0
24/02:00pm 32.0 32.9 20.9 52 7.4 W 17 22 9 12 1011.1 1010.9 0.0
24/01:30pm 32.8 33.1 20.7 49 8.1 NNW 20 28 11 15 1011.4 1011.2 0.0
24/01:00pm 32.3 33.6 20.9 51 7.6 NNW 15 24 8 13 1012.0 1011.8 0.0
24/12:30pm 31.8 32.5 20.4 51 7.6 NNW 17 28 9 15 1012.6 1012.4 0.0
24/12:00pm 31.4 33.1 21.6 56 6.6 NNW 15 24 8 13 1013.1 1012.9 0.0
24/11:30am 31.1 32.4 21.6 57 6.4 NW 17 20 9 11 1013.5 1013.3 0.0
24/11:00am 31.4 32.6 20.7 53 7.1 N 15 22 8 12 1013.8 1013.6 0.0
24/10:30am 30.3 31.2 20.8 56 6.3 NNW 17 24 9 13 1014.3 1014.1 0.0
24/10:00am 31.4 32.8 21.0 54 7.0 NNW 15 19 8 10 1014.5 1014.3 0.0
24/09:30am 30.6 31.6 21.1 57 6.4 N 17 22 9 12 1014.6 1014.4 0.0
24/09:00am 29.5 30.8 20.9 60 5.7 N 15 20 8 11 1014.4 1014.2 1.4
24/08:30am 29.5 32.2 20.6 58 5.9 NNE 7 13 4 7 1014.2 1014.0 1.4
24/08:00am 28.0 30.6 20.0 61 5.2 NE 6 9 3 5 1014.1 1013.9 1.4
24/07:30am 26.7 28.9 20.5 69 4.1 ENE 9 11 5 6 1013.7 1013.5 1.4
24/07:00am 26.1 29.7 21.3 75 3.2 SSE 4 7 2 4 1013.5 1013.3 1.4
24/06:30am 25.1 29.1 20.6 76 2.9 CALM 0 0 0 0 1013.1 1012.9 1.4
24/06:00am 25.8 27.2 20.4 72 3.5 N 13 17 7 9 1012.8 1012.6 1.4
24/05:30am 26.2 28.7 22.5 80 2.5 NNW 13 19 7 10 1012.3 1012.1 1.4
24/05:00am 26.0 29.6 23.1 84 2.0 ESE 9 11 5 6 1012.8 1012.6 1.4
24/04:30am 26.3 30.2 22.6 80 2.5 NE 6 7 3 4 1012.3 1012.1 1.4
24/04:00am 26.8 30.8 23.1 80 2.5 NW 7 11 4 6 1011.9 1011.7 1.4
24/03:30am 26.1 30.3 23.2 84 2.0 WNW 6 9 3 5 1011.7 1011.5 1.4
24/03:00am 26.6 31.8 23.5 83 2.1 N 2 7 1 4 1011.9 1011.7 1.4
24/02:30am 26.3 31.0 24.0 87 1.6 NW 6 9 3 5 1012.0 1011.8 1.4
24/02:00am 24.8 28.4 22.3 86 1.7 W 7 9 4 5 1012.0 1011.8 1.4
24/01:30am 25.4 29.6 23.5 89 1.3 WNW 7 11 4 6 1012.1 1011.9 1.4
24/01:00am 24.7 28.4 22.2 86 1.7 W 6 7 3 4 1012.2 1012.0 1.4
24/12:30am 25.3 29.8 23.0 87 1.6 W 4 7 2 4 1012.4 1012.2 1.4
24/12:00am 24.8 29.7 22.3 86 1.7 WSW 0 0 0 0 1012.7 1012.5 1.4
 
Date/Time
CST
Temp
°C
App
Temp
°C
Dew
Point
Rel
Hum
%
Delta-T
°C
Wind Press
QNH
hPa
Press
MSL
hPa
Rain
since 9 am
mm
Dir
 
Spd
km/h
Gust
km/h
Spd
kts
Gust
kts
23/11:30pm 25.4 30.3 22.3 83 2.1 CALM 0 0 0 0 1013.0 1012.8 1.4
23/11:00pm 25.9 30.7 22.2 80 2.5 CALM 0 0 0 0 1013.1 1012.9 1.4
23/10:30pm 26.2 31.1 22.3 79 2.6 CALM 0 0 0 0 1012.9 1012.7 1.4
23/10:00pm 26.7 31.5 22.1 76 3.1 CALM 0 0 0 0 1012.7 1012.5 1.4
23/09:30pm 27.5 31.3 22.4 73 3.4 NNW 6 9 3 5 1012.4 1012.2 1.4
23/09:00pm 27.5 31.0 22.2 73 3.6 NW 7 11 4 6 1011.9 1011.7 1.4
23/08:30pm 27.5 31.1 22.0 72 3.7 W 6 9 3 5 1011.6 1011.4 1.4
23/08:00pm 27.8 31.3 22.1 71 3.8 W 7 13 4 7 1011.3 1011.1 1.4
23/07:30pm 28.0 31.1 21.5 67 4.3 W 7 17 4 9 1011.1 1010.9 1.4
23/07:00pm 28.3 31.0 21.3 65 4.7 W 9 17 5 9 1010.9 1010.7 1.4
23/06:30pm 29.0 31.0 21.5 64 5.0 WNW 13 19 7 10 1010.6 1010.4 1.4
23/06:00pm 29.5 30.8 21.7 63 5.3 W 17 28 9 15 1010.0 1009.8 1.4
23/05:30pm 30.4 31.4 21.8 60 5.8 W 19 26 10 14 1010.0 1009.8 1.4
23/05:00pm 30.4 31.9 21.2 58 6.2 NW 15 20 8 11 1010.6 1010.4 1.4
23/04:30pm 31.8 34.0 21.9 55 6.7 W 13 22 7 12 1010.2 1010.0 1.4
23/04:00pm 31.1 32.2 21.9 58 6.2 W 19 28 10 15 1010.3 1010.1 1.4
23/03:30pm 31.6 32.7 22.0 56 6.5 WNW 19 32 10 17 1010.2 1010.0 1.4
23/03:00pm 31.0 32.5 22.0 58 6.1 WNW 17 28 9 15 1010.6 1010.4 1.4
23/02:30pm 31.1 32.7 23.2 63 5.4 WNW 20 30 11 16 1011.0 1010.8 1.4
23/02:00pm 31.2 33.9 22.8 61 5.8 WNW 13 22 7 12 1011.4 1011.2 1.4
23/01:30pm 29.3 32.9 24.4 75 3.4 W 13 20 7 11 1011.9 1011.7 1.4
23/01:00pm 30.0 31.2 22.2 63 5.3 W 19 33 10 18 1012.6 1012.4 0.0
23/12:30pm 32.5 33.6 22.0 54 7.1 NNW 19 26 10 14 1013.0 1012.8 0.0
23/12:00pm 31.2 33.0 21.9 57 6.3 WNW 15 20 8 11 1013.2 1013.0 0.0
23/11:30am 31.5 33.9 22.2 57 6.3 NNW 13 19 7 10 1013.8 1013.6 0.0
23/11:00am 30.7 32.0 20.9 56 6.5 N 15 20 8 11 1014.0 1013.8 0.0
23/10:30am 30.7 31.7 21.8 59 6.0 NNW 19 22 10 12 1014.1 1013.9 0.0
23/10:00am 30.6 34.0 22.7 62 5.4 NW 9 17 5 9 1014.4 1014.2 0.0
23/09:30am 30.4 33.0 22.6 63 5.3 NW 13 20 7 11 1014.5 1014.3 0.0
23/09:00am 28.9 32.2 22.6 69 4.3 NNW 9 13 5 7 1014.6 1014.4 0.0
23/08:30am 28.9 31.4 22.4 68 4.4 NW 13 19 7 10 1014.2 1014.0 0.0
23/08:00am 28.4 32.6 23.1 73 3.6 NW 6 11 3 6 1013.8 1013.6 0.0
23/07:30am 26.9 31.8 23.6 82 2.3 E 4 7 2 4 1013.6 1013.4 0.0
23/07:00am 25.6 31.0 23.3 87 1.6 CALM 0 0 0 0 1013.2 1013.0 0.0
23/06:30am 25.2 30.1 23.1 88 1.4 WNW 2 6 1 3 1012.7 1012.5 0.0
23/06:00am 24.9 29.7 22.8 88 1.4 W 2 6 1 3 1012.4 1012.2 0.0
23/05:30am 25.5 30.5 23.2 87 1.6 ESE 2 7 1 4 1012.6 1012.4 0.0
23/05:00am 25.5 29.2 23.2 87 1.6 ENE 9 13 5 7 1012.5 1012.3 0.0
23/04:30am 25.6 30.4 23.5 88 1.4 E 4 6 2 3 1011.9 1011.7 0.0
23/04:00am 25.5 31.0 23.4 88 1.4 CALM 0 0 0 0 1011.5 1011.3 0.0
23/03:30am 25.5 30.1 23.2 87 1.6 ENE 4 7 2 4 1011.5 1011.3 0.0
23/03:00am 25.3 29.0 23.2 88 1.4 NE 9 13 5 7 1011.6 1011.4 0.0
23/02:30am 25.1 29.9 23.5 91 1.1 SSW 4 7 2 4 1011.2 1011.0 0.0
23/02:00am 24.6 28.9 22.7 89 1.3 SW 4 7 2 4 1011.5 1011.3 0.0
23/01:30am 24.7 29.3 22.4 87 1.5 W 2 7 1 4 1011.8 1011.6 0.0
23/01:00am 25.0 30.2 22.9 88 1.4 CALM 0 0 0 0 1012.1 1011.9 0.0
23/12:30am 25.4 30.7 23.1 87 1.6 CALM 0 7 0 4 1012.1 1011.9 0.0
23/12:00am 25.7 30.9 22.8 84 2.0 CALM 0 0 0 0 1012.5 1012.3 0.0
 
Date/Time
CST
Temp
°C
App
Temp
°C
Dew
Point
Rel
Hum
%
Delta-T
°C
Wind Press
QNH
hPa
Press
MSL
hPa
Rain
since 9 am
mm
Dir
 
Spd
km/h
Gust
km/h
Spd
kts
Gust
kts
22/11:30pm 26.0 31.2 22.9 83 2.1 CALM 0 0 0 0 1012.7 1012.5 0.0
22/11:00pm 26.6 31.2 23.1 81 2.4 WNW 4 7 2 4 1012.8 1012.6 0.0
22/10:30pm 27.1 32.2 23.3 80 2.6 W 2 7 1 4 1012.8 1012.6 0.0
22/10:00pm 27.2 31.4 23.2 79 2.7 WNW 6 7 3 4 1012.5 1012.3 0.0
22/09:30pm 27.2 31.4 23.2 79 2.7 W 6 9 3 5 1012.4 1012.2 0.0
22/09:00pm 27.4 31.6 23.2 78 2.9 WNW 6 9 3 5 1012.3 1012.1 0.0
22/08:30pm 27.7 32.0 23.3 77 3.0 W 6 7 3 4 1012.1 1011.9 0.0
22/08:00pm 27.9 31.9 23.1 75 3.3 WNW 7 11 4 6 1011.6 1011.4 0.0
22/07:30pm 28.1 31.7 23.0 74 3.5 W 9 13 5 7 1011.3 1011.1 0.0
22/07:00pm 28.4 31.5 22.9 72 3.8 W 11 17 6 9 1011.2 1011.0 0.0
22/06:30pm 28.9 31.3 22.9 70 4.1 WNW 15 20 8 11 1010.9 1010.7 0.0
22/06:00pm 29.9 32.1 22.6 65 5.0 W 15 22 8 12 1010.7 1010.5 0.0
22/05:30pm 30.2 32.0 22.6 63 5.2 WNW 17 26 9 14 1010.5 1010.3 0.0
22/05:00pm 30.5 32.2 22.4 62 5.5 WNW 17 26 9 14 1010.4 1010.2 0.0
22/04:30pm 31.1 31.8 21.6 57 6.4 WNW 20 30 11 16 1010.4 1010.2 0.0
22/04:00pm 31.9 32.8 20.8 51 7.4 W 17 30 9 16 1010.6 1010.4 0.0
22/03:30pm 31.4 31.5 20.0 50 7.5 WNW 19 32 10 17 1010.9 1010.7 0.0
22/03:00pm 32.1 32.0 20.0 48 8.0 NW 20 30 11 16 1010.9 1010.7 0.0
22/02:30pm 32.2 32.7 20.8 51 7.6 NW 19 26 10 14 1011.4 1011.2 0.0
22/02:00pm 32.8 32.7 20.0 47 8.5 NNW 20 28 11 15 1011.8 1011.6 0.0
22/01:30pm 33.4 34.4 20.2 46 8.8 NW 15 24 8 13 1012.3 1012.1 0.0
22/01:00pm 33.1 33.7 20.3 47 8.5 NW 17 28 9 15 1012.9 1012.7 0.0
22/12:30pm 32.7 33.0 19.6 46 8.6 NNW 17 26 9 14 1013.6 1013.4 0.0
22/12:00pm 31.8 32.2 20.7 51 7.4 NW 19 26 10 14 1013.9 1013.7 0.0
22/11:30am 31.3 32.3 20.3 52 7.3 NW 15 24 8 13 1014.6 1014.4 0.0
22/11:00am 31.9 32.9 21.1 52 7.3 NW 17 24 9 13 1014.7 1014.5 0.0
22/10:30am 30.8 32.2 21.0 56 6.6 NNW 15 20 8 11 1014.9 1014.7 0.0
22/10:00am 31.1 32.2 21.3 56 6.6 NNW 17 24 9 13 1015.0 1014.8 0.0
22/09:30am 30.5 32.4 22.1 61 5.7 NW 15 22 8 12 1015.0 1014.8 0.0
22/09:00am 29.5 31.6 21.7 63 5.2 W 13 20 7 11 1015.2 1015.0 0.0
22/08:30am 29.4 32.9 22.9 68 4.4 NNW 9 15 5 8 1015.0 1014.8 0.0
22/08:00am 27.6 31.6 22.1 72 3.7 NNE 4 7 2 4 1014.7 1014.5 0.0
22/07:30am 27.1 31.9 22.9 78 2.9 SSW 2 7 1 4 1014.5 1014.3 0.0
22/07:00am 25.4 28.9 22.9 86 1.7 ESE 9 11 5 6 1014.2 1014.0 0.0
22/06:30am 24.4 29.5 22.7 90 1.1 CALM 0 0 0 0 1013.2 1013.0 0.0
22/06:00am 24.5 29.0 22.2 87 1.5 ESE 2 6 1 3 1013.0 1012.8 0.0
22/05:30am 24.1 28.7 21.8 87 1.5 CALM 0 0 0 0 1012.8 1012.6 0.0
22/05:00am 24.7 29.8 22.6 88 1.4 CALM 0 0 0 0 1012.4 1012.2 0.0
22/04:30am 24.9 30.1 22.8 88 1.4 CALM 0 0 0 0 1012.1 1011.9 0.0
22/04:00am 24.5 28.3 22.4 88 1.4 E 6 7 3 4 1012.1 1011.9 0.0
22/03:30am 24.9 28.5 23.0 89 1.3 N 9 13 5 7 1011.7 1011.5 0.0
22/03:00am 23.6 27.0 21.7 89 1.3 SW 6 7 3 4 1011.6 1011.4 0.0
22/02:30am 24.0 28.6 21.7 87 1.5 CALM 0 0 0 0 1012.0 1011.8 0.0
22/02:00am 24.9 29.1 21.8 83 2.1 SE 2 6 1 3 1012.3 1012.1 0.0
22/01:30am 24.4 29.1 21.9 86 1.7 CALM 0 6 0 3 1012.5 1012.3 0.0
22/01:00am 25.0 29.8 22.1 84 1.9 CALM 0 0 0 0 1012.7 1012.5 0.0
22/12:30am 25.1 30.0 22.4 85 1.8 CALM 0 0 0 0 1013.1 1012.9 0.0
22/12:00am 25.0 29.7 21.9 83 2.1 CALM 0 0 0 0 1013.3 1013.1 0.0
 
Date/Time
CST
Temp
°C
App
Temp
°C
Dew
Point
Rel
Hum
%
Delta-T
°C
Wind Press
QNH
hPa
Press
MSL
hPa
Rain
since 9 am
mm
Dir
 
Spd
km/h
Gust
km/h
Spd
kts
Gust
kts
21/11:30pm 25.3 29.8 22.2 83 2.1 W 2 7 1 4 1013.6 1013.4 0.0
21/11:00pm 26.0 30.9 22.3 80 2.5 CALM 0 0 0 0 1013.7 1013.5 0.0

Other Formats:

Comma delimited format used in spreadsheet applications
http://www.bom.gov.au/fwo/IDD60801/IDD60801.95111.axf

JavaScript Object Notation format (JSON) in row-major order
http://www.bom.gov.au/fwo/IDD60801/IDD60801.95111.json